Time;durP1;ratioP1;P1;durP2;ratioP2;P2;SDS_P1;SDS_P2;PMS_P1;PMS_P2;Temp;Humidity;BMP_temperature;BMP_pressure;BME280_temperature;BME280_humidity;BME280_pressure;Samples;Min_cycle;Max_cycle;Signal;HPM_P1;HPM_P2
2022/03/11 00:00:16;;;;;;;11.53;6.30;;;0.60;47.50;;;;;;5123124;28;20170;-46
2022/03/11 00:02:46;;;;;;;10.80;6.80;;;0.60;47.70;;;;;;5127005;28;20186;-46
2022/03/11 00:05:17;;;;;;;13.00;6.50;;;0.60;47.70;;;;;;5133363;28;20480;-46
2022/03/11 00:07:47;;;;;;;12.17;6.80;;;0.50;47.80;;;;;;5130449;28;20210;-46
2022/03/11 00:10:18;;;;;;;14.00;6.73;;;0.50;47.70;;;;;;5126928;28;20181;-47
2022/03/11 00:12:48;;;;;;;8.33;5.90;;;0.50;47.80;;;;;;5128629;28;20178;-46
2022/03/11 00:15:19;;;;;;;20.53;7.20;;;0.50;48.20;;;;;;5121776;28;20182;-46
2022/03/11 00:17:49;;;;;;;15.63;7.80;;;0.40;47.70;;;;;;5134924;28;20210;-48
2022/03/11 00:20:21;;;;;;;10.77;6.47;;;0.40;47.80;;;;;;5127108;28;20254;-46
2022/03/11 00:22:52;;;;;;;10.43;6.60;;;0.40;47.80;;;;;;5124379;28;20193;-47
2022/03/11 00:25:22;;;;;;;14.10;7.57;;;0.50;47.90;;;;;;5124025;28;21063;-47
2022/03/11 00:27:53;;;;;;;8.80;6.13;;;0.40;47.90;;;;;;5122415;28;20465;-48
2022/03/11 00:30:23;;;;;;;14.70;6.80;;;0.40;47.90;;;;;;5125765;28;20277;-47
2022/03/11 00:32:54;;;;;;;11.37;6.40;;;0.30;47.80;;;;;;5129918;28;20182;-47
2022/03/11 00:35:24;;;;;;;9.90;6.97;;;0.30;48.00;;;;;;5130445;28;20725;-46
2022/03/11 00:37:55;;;;;;;11.40;6.83;;;0.30;48.10;;;;;;5128977;28;20217;-48
2022/03/11 00:40:26;;;;;;;11.00;6.80;;;0.30;47.90;;;;;;5127440;28;20186;-47
2022/03/11 00:42:57;;;;;;;21.37;7.33;;;0.20;47.80;;;;;;5137495;28;20212;-46
2022/03/11 00:45:28;;;;;;;11.80;6.07;;;0.30;47.90;;;;;;5128103;28;20503;-46
2022/03/11 00:47:58;;;;;;;10.43;6.80;;;0.20;47.90;;;;;;5126929;28;20714;-47
2022/03/11 00:50:29;;;;;;;14.70;6.47;;;0.20;48.20;;;;;;5132112;28;20476;-47
2022/03/11 00:52:59;;;;;;;12.27;6.70;;;0.20;48.00;;;;;;5131277;28;20278;-46
2022/03/11 00:55:30;;;;;;;11.63;6.20;;;0.20;47.90;;;;;;5126954;28;20186;-45
2022/03/11 00:58:01;;;;;;;13.30;7.07;;;0.20;48.50;;;;;;5109762;28;20214;-47
2022/03/11 01:00:32;;;;;;;9.60;6.30;;;0.10;48.00;;;;;;5126861;28;20452;-47
2022/03/11 01:03:04;;;;;;;9.80;6.57;;;0.10;48.10;;;;;;5127761;28;20182;-45
2022/03/11 01:05:34;;;;;;;13.70;7.40;;;0.10;48.20;;;;;;5132683;28;20460;-47
2022/03/11 01:08:05;;;;;;;11.47;6.90;;;0.00;48.20;;;;;;5132845;28;20541;-46
2022/03/11 01:10:35;;;;;;;16.50;7.67;;;0.00;48.30;;;;;;5130844;28;20190;-46
2022/03/11 01:13:07;;;;;;;13.03;7.07;;;0.00;48.20;;;;;;5132090;28;20215;-46
2022/03/11 01:15:37;;;;;;;10.10;6.70;;;0.00;48.00;;;;;;5133091;28;20654;-46
2022/03/11 01:18:08;;;;;;;17.83;7.27;;;0.00;48.00;;;;;;5127728;28;20476;-46
2022/03/11 01:20:38;;;;;;;15.50;7.23;;;0.00;48.10;;;;;;5124871;28;20193;-48
2022/03/11 01:23:09;;;;;;;10.40;7.57;;;0.00;48.20;;;;;;5136482;28;20690;-46
2022/03/11 01:25:39;;;;;;;11.03;6.77;;;0.00;48.10;;;;;;5125631;28;20210;-46
2022/03/11 01:28:10;;;;;;;14.00;6.87;;;0.00;48.10;;;;;;5120735;28;20210;-46
2022/03/11 01:30:41;;;;;;;13.30;6.63;;;-0.10;48.00;;;;;;5115221;28;20236;-46
2022/03/11 01:33:11;;;;;;;20.50;7.77;;;0.00;47.90;;;;;;5126898;28;20294;-47
2022/03/11 01:35:42;;;;;;;8.83;6.60;;;-0.10;48.60;;;;;;5129048;28;20500;-46
2022/03/11 01:38:13;;;;;;;14.37;7.20;;;-0.10;47.90;;;;;;5128098;28;20268;-46
2022/03/11 01:40:43;;;;;;;17.77;8.07;;;-0.10;47.90;;;;;;5132554;28;20217;-46
2022/03/11 01:43:16;;;;;;;19.50;7.70;;;-0.10;48.00;;;;;;5128389;28;20291;-45
2022/03/11 01:45:46;;;;;;;16.73;7.90;;;-0.10;48.10;;;;;;5126730;28;20242;-47
2022/03/11 01:48:17;;;;;;;14.73;6.80;;;-0.10;48.00;;;;;;5125251;28;20460;-45
2022/03/11 01:50:48;;;;;;;13.90;7.07;;;-0.20;48.10;;;;;;5128964;28;20189;-45
2022/03/11 01:53:18;;;;;;;16.50;7.20;;;-0.20;48.10;;;;;;5136229;28;20196;-46
2022/03/11 01:55:49;;;;;;;11.80;7.13;;;-0.20;48.10;;;;;;5135321;28;20508;-45
2022/03/11 01:58:22;;;;;;;12.43;7.43;;;-0.20;48.10;;;;;;5127625;28;20280;-46
2022/03/11 02:00:53;;;;;;;10.90;6.50;;;-0.30;48.20;;;;;;5132707;28;20179;-45
2022/03/11 02:03:23;;;;;;;15.40;7.80;;;-0.30;48.30;;;;;;5132497;28;20444;-46
2022/03/11 02:05:54;;;;;;;20.63;7.23;;;-0.30;48.20;;;;;;5117401;28;20249;-46
2022/03/11 02:08:24;;;;;;;10.70;7.00;;;-0.30;48.40;;;;;;5133579;28;20242;-45
2022/03/11 02:10:55;;;;;;;11.60;6.77;;;-0.40;48.40;;;;;;5136171;28;20228;-49
2022/03/11 02:13:25;;;;;;;22.47;7.60;;;-0.40;48.40;;;;;;5128773;28;20182;-46
2022/03/11 02:15:56;;;;;;;11.40;6.90;;;-0.40;48.60;;;;;;5130236;28;20191;-45
2022/03/11 02:18:27;;;;;;;14.87;8.67;;;-0.40;48.60;;;;;;5119486;28;20579;-46
2022/03/11 02:20:57;;;;;;;15.43;8.30;;;-0.40;48.40;;;;;;5128595;28;20192;-46
2022/03/11 02:23:30;;;;;;;15.30;7.57;;;-0.40;48.50;;;;;;5138364;28;20201;-46
2022/03/11 02:26:01;;;;;;;10.70;7.70;;;-0.40;48.60;;;;;;5122410;28;20704;-46
2022/03/11 02:28:35;;;;;;;20.10;8.47;;;-0.50;48.70;;;;;;5127318;28;20461;-46
2022/03/11 02:31:06;;;;;;;13.33;7.40;;;-0.50;48.90;;;;;;5130629;28;20429;-45
2022/03/11 02:33:37;;;;;;;15.23;7.40;;;-0.50;48.80;;;;;;5132198;28;20494;-47
2022/03/11 02:36:07;;;;;;;22.27;8.40;;;-0.60;48.90;;;;;;5132061;28;20285;-45
2022/03/11 02:38:38;;;;;;;16.77;6.97;;;-0.60;49.00;;;;;;5132214;28;20224;-46
2022/03/11 02:41:09;;;;;;;13.47;8.27;;;-0.50;49.10;;;;;;5123647;28;20202;-46
2022/03/11 02:43:42;;;;;;;14.90;7.77;;;-0.50;49.20;;;;;;5131257;28;20844;-46
2022/03/11 02:46:14;;;;;;;18.73;8.60;;;-0.70;49.10;;;;;;5123949;28;20209;-45
2022/03/11 02:48:44;;;;;;;15.97;7.67;;;-0.60;49.50;;;;;;5124328;28;20462;-47
2022/03/11 02:51:15;;;;;;;10.53;6.37;;;-0.70;49.60;;;;;;5129959;28;20435;-47
2022/03/11 02:53:45;;;;;;;31.00;9.10;;;-0.80;49.60;;;;;;5140091;28;20239;-47
2022/03/11 02:56:16;;;;;;;20.27;7.90;;;-0.80;50.00;;;;;;5122109;28;20203;-46
2022/03/11 02:58:46;;;;;;;15.33;8.30;;;-0.90;50.00;;;;;;5126226;28;20292;-46
2022/03/11 03:01:17;;;;;;;20.43;8.90;;;-0.90;50.00;;;;;;5134198;28;20187;-46
2022/03/11 03:03:48;;;;;;;15.53;7.93;;;-0.90;50.40;;;;;;5134121;28;20216;-47
2022/03/11 03:06:18;;;;;;;12.03;7.37;;;-1.00;50.40;;;;;;5127898;28;20300;-47
2022/03/11 03:08:49;;;;;;;14.47;7.50;;;-1.00;50.50;;;;;;5130622;28;20625;-46
2022/03/11 03:11:19;;;;;;;9.67;6.37;;;-1.00;50.50;;;;;;5134705;28;20269;-47
2022/03/11 03:13:50;;;;;;;15.30;7.50;;;-1.10;50.70;;;;;;5131916;28;20176;-48
2022/03/11 03:16:21;;;;;;;16.50;7.40;;;-1.20;50.90;;;;;;5126951;28;20319;-46
2022/03/11 03:18:51;;;;;;;15.60;7.33;;;-1.20;51.30;;;;;;5130627;28;20281;-47
2022/03/11 03:21:22;;;;;;;10.87;7.20;;;-1.20;51.30;;;;;;5132812;28;20193;-47
2022/03/11 03:23:53;;;;;;;12.30;7.40;;;-1.20;51.60;;;;;;5122569;28;20270;-46
2022/03/11 03:26:23;;;;;;;13.90;7.53;;;-1.30;51.70;;;;;;5134118;28;20213;-47
2022/03/11 03:28:54;;;;;;;14.17;7.47;;;-1.30;52.00;;;;;;5122727;28;20214;-47
2022/03/11 03:31:24;;;;;;;17.87;9.03;;;-1.30;52.10;;;;;;5124744;28;20178;-47
2022/03/11 03:33:55;;;;;;;16.13;7.90;;;-1.30;52.70;;;;;;5131654;28;20279;-47
2022/03/11 03:36:25;;;;;;;15.87;7.40;;;-1.30;52.20;;;;;;5123610;28;20188;-47
2022/03/11 03:38:56;;;;;;;23.07;8.67;;;-1.50;52.30;;;;;;5123186;28;20210;-47
2022/03/11 03:41:26;;;;;;;13.77;8.07;;;-1.40;52.50;;;;;;5133980;28;20291;-47
2022/03/11 03:43:57;;;;;;;16.50;7.57;;;-1.40;52.50;;;;;;5123602;28;20260;-47
2022/03/11 03:46:27;;;;;;;15.27;8.13;;;-1.50;52.50;;;;;;5126542;28;20234;-47
2022/03/11 03:48:59;;;;;;;14.10;7.83;;;-1.40;52.80;;;;;;5130224;28;20209;-47
2022/03/11 03:51:30;;;;;;;15.00;7.43;;;-1.50;52.80;;;;;;5125932;28;20183;-46
2022/03/11 03:54:01;;;;;;;13.27;8.63;;;-1.50;53.10;;;;;;5118963;28;20430;-47
2022/03/11 03:56:31;;;;;;;15.57;7.80;;;-1.50;52.90;;;;;;5127412;28;20976;-47
2022/03/11 03:59:04;;;;;;;11.80;8.20;;;-1.50;53.20;;;;;;5128857;28;20263;-57
2022/03/11 04:01:37;;;;;;;23.07;8.37;;;-1.40;53.40;;;;;;5128359;28;20188;-46
2022/03/11 04:04:08;;;;;;;18.30;8.17;;;-1.60;53.60;;;;;;5135096;28;20945;-47
2022/03/11 04:06:42;;;;;;;11.40;8.00;;;-1.60;53.90;;;;;;5126265;28;20464;-47
2022/03/11 04:09:13;;;;;;;13.40;8.10;;;-1.60;53.90;;;;;;5121331;28;20973;-47
2022/03/11 04:11:43;;;;;;;11.07;7.90;;;-1.60;54.00;;;;;;5126700;28;20444;-48
2022/03/11 04:14:14;;;;;;;17.50;8.20;;;-1.60;53.80;;;;;;5133634;28;20186;-47
2022/03/11 04:16:44;;;;;;;13.57;7.63;;;-1.60;54.10;;;;;;5126303;28;20281;-48
2022/03/11 04:19:15;;;;;;;14.33;8.07;;;-1.60;54.10;;;;;;5114947;28;20225;-47
2022/03/11 04:21:45;;;;;;;14.33;8.67;;;-1.60;54.10;;;;;;5126352;28;20547;-47
2022/03/11 04:24:17;;;;;;;19.50;8.60;;;-1.60;54.30;;;;;;5126862;28;20182;-47
2022/03/11 04:26:47;;;;;;;16.10;7.03;;;-1.60;54.40;;;;;;5126707;28;20265;-47
2022/03/11 04:29:18;;;;;;;17.90;8.30;;;-1.60;54.60;;;;;;5134384;28;20429;-47
2022/03/11 04:31:49;;;;;;;15.60;7.77;;;-1.70;54.70;;;;;;5131887;28;20223;-46
2022/03/11 04:34:21;;;;;;;17.67;8.63;;;-1.70;55.00;;;;;;5134378;28;20180;-47
2022/03/11 04:36:52;;;;;;;20.63;8.77;;;-1.70;55.00;;;;;;5125217;28;20623;-47
2022/03/11 04:39:26;;;;;;;17.37;7.50;;;-1.80;55.00;;;;;;5128894;28;20439;-46
2022/03/11 04:41:57;;;;;;;14.37;8.33;;;-1.60;55.20;;;;;;5136929;28;20493;-47
2022/03/11 04:44:27;;;;;;;16.93;7.97;;;-1.80;55.20;;;;;;5128381;28;21033;-47
2022/03/11 04:46:58;;;;;;;16.80;7.30;;;-1.80;55.40;;;;;;5125300;28;20202;-46
2022/03/11 04:49:28;;;;;;;17.53;7.07;;;-1.80;55.30;;;;;;5132024;28;20193;-47
2022/03/11 04:52:00;;;;;;;18.80;8.77;;;-1.80;55.40;;;;;;5132909;28;20247;-47
2022/03/11 04:54:30;;;;;;;14.40;7.70;;;-1.80;55.60;;;;;;5130294;28;20188;-48
2022/03/11 04:57:01;;;;;;;16.90;8.43;;;-1.80;55.70;;;;;;5128100;28;20462;-48
2022/03/11 04:59:31;;;;;;;13.37;7.70;;;-1.90;55.40;;;;;;5129147;28;20587;-48
2022/03/11 05:02:02;;;;;;;17.70;9.27;;;-1.80;55.60;;;;;;5136372;28;20184;-48
2022/03/11 05:04:32;;;;;;;15.60;8.73;;;-1.90;55.90;;;;;;5133887;28;20237;-47
2022/03/11 05:07:06;;;;;;;24.87;8.90;;;-1.90;55.90;;;;;;5129402;28;20254;-48
2022/03/11 05:09:36;;;;;;;19.53;8.30;;;-1.90;55.90;;;;;;5123362;28;20654;-46
2022/03/11 05:12:07;;;;;;;24.83;7.90;;;-1.90;56.10;;;;;;5132705;28;20429;-47
2022/03/11 05:14:38;;;;;;;18.53;8.37;;;-2.00;56.20;;;;;;5137833;28;20199;-47
2022/03/11 05:17:09;;;;;;;17.87;7.17;;;-2.00;56.40;;;;;;5132189;28;20581;-48
2022/03/11 05:19:39;;;;;;;15.03;7.53;;;-1.90;56.60;;;;;;5131700;28;20445;-47
2022/03/11 05:22:11;;;;;;;25.70;8.23;;;-2.00;56.70;;;;;;5131752;28;20187;-47
2022/03/11 05:24:41;;;;;;;16.73;7.50;;;-2.00;56.50;;;;;;5126287;28;20210;-47
2022/03/11 05:27:12;;;;;;;17.37;8.70;;;-1.90;56.80;;;;;;5130038;28;21015;-47
2022/03/11 05:29:43;;;;;;;14.67;6.97;;;-2.10;56.50;;;;;;5133480;28;20288;-48
2022/03/11 05:32:15;;;;;;;14.53;8.47;;;-2.00;56.70;;;;;;5137039;28;20193;-48
2022/03/11 05:34:47;;;;;;;17.60;8.60;;;-2.00;56.80;;;;;;5126920;28;20601;-47
2022/03/11 05:37:17;;;;;;;23.30;8.30;;;-2.00;56.70;;;;;;5141441;23;20463;-51
2022/03/11 05:39:48;;;;;;;24.73;8.43;;;-2.00;57.00;;;;;;5106909;28;20478;-50
2022/03/11 05:42:18;;;;;;;23.77;9.83;;;-2.00;56.90;;;;;;5117443;28;20270;-50
2022/03/11 05:44:49;;;;;;;12.50;8.90;;;-2.00;57.10;;;;;;5111350;28;20698;-48
2022/03/11 05:47:19;;;;;;;20.97;9.80;;;-1.90;57.10;;;;;;5117422;28;20904;-48
2022/03/11 05:49:50;;;;;;;22.93;8.57;;;-2.00;56.60;;;;;;5119266;28;20171;-48
2022/03/11 05:52:22;;;;;;;14.67;8.70;;;-2.00;56.80;;;;;;5107577;29;20184;-47
2022/03/11 05:54:53;;;;;;;21.50;9.77;;;-2.00;56.90;;;;;;5102184;29;20269;-51
2022/03/11 05:57:23;;;;;;;16.10;7.83;;;-2.00;56.90;;;;;;5110241;28;20541;-48
2022/03/11 05:59:54;;;;;;;14.00;8.30;;;-2.00;56.70;;;;;;5131954;28;20461;-48
2022/03/11 06:02:24;;;;;;;21.37;10.00;;;-1.80;56.20;;;;;;5094405;28;20209;-48
2022/03/11 06:04:55;;;;;;;18.57;8.23;;;-1.40;55.50;;;;;;5105774;28;20205;-50
2022/03/11 06:07:25;;;;;;;14.90;7.00;;;-1.20;54.30;;;;;;5111872;28;20226;-48
2022/03/11 06:09:56;;;;;;;17.97;9.20;;;-1.20;53.40;;;;;;5108477;28;20242;-50
2022/03/11 06:12:26;;;;;;;14.53;7.60;;;-1.30;53.50;;;;;;5105828;28;20192;-49
2022/03/11 06:14:57;;;;;;;17.30;8.30;;;-1.30;53.70;;;;;;5113680;28;20187;-48
2022/03/11 06:17:27;;;;;;;16.63;8.30;;;-1.40;53.80;;;;;;5121870;28;20212;-50
2022/03/11 06:19:58;;;;;;;15.13;8.50;;;-1.30;53.60;;;;;;5103855;29;20558;-50
2022/03/11 06:22:29;;;;;;;12.03;7.93;;;-1.40;53.40;;;;;;5109875;28;20183;-47
2022/03/11 06:24:59;;;;;;;20.73;8.87;;;-1.30;53.60;;;;;;5131853;28;20210;-49
2022/03/11 06:27:30;;;;;;;15.67;9.40;;;-1.10;53.10;;;;;;5111553;28;20195;-48
2022/03/11 06:30:00;;;;;;;19.00;9.00;;;-0.90;52.40;;;;;;5114527;28;20189;-48
2022/03/11 06:32:31;;;;;;;17.63;8.63;;;-0.60;51.60;;;;;;5100104;29;20233;-49
2022/03/11 06:35:01;;;;;;;21.03;9.00;;;-0.10;50.70;;;;;;5116449;28;20195;-49
2022/03/11 06:37:33;;;;;;;17.97;9.10;;;0.70;49.00;;;;;;5106146;28;20250;-48
2022/03/11 06:40:04;;;;;;;16.43;8.87;;;2.00;46.40;;;;;;5103384;28;20274;-49
2022/03/11 06:42:40;;;;;;;16.60;7.97;;;3.00;43.00;;;;;;5104465;28;20444;-50
2022/03/11 06:45:13;;;;;;;21.43;10.40;;;3.60;40.70;;;;;;5102621;28;20942;-50
2022/03/11 06:47:45;;;;;;;23.20;9.97;;;3.90;39.40;;;;;;5107913;28;20525;-47
2022/03/11 06:50:17;;;;;;;19.50;9.10;;;4.60;37.90;;;;;;5120349;28;20446;-49
2022/03/11 06:52:48;;;;;;;20.80;9.20;;;4.40;37.20;;;;;;5100433;28;21017;-49
2022/03/11 06:55:19;;;;;;;20.57;8.30;;;4.70;36.90;;;;;;5099104;28;20435;-50
2022/03/11 06:57:49;;;;;;;20.10;9.70;;;4.80;36.40;;;;;;5096822;28;20202;-49
2022/03/11 07:00:20;;;;;;;17.10;8.33;;;5.10;35.80;;;;;;5093941;28;20817;-48
2022/03/11 07:02:50;;;;;;;21.80;9.40;;;5.00;35.40;;;;;;5113445;28;20195;-50
2022/03/11 07:05:21;;;;;;;16.23;8.63;;;5.50;35.50;;;;;;5101875;28;20598;-50
2022/03/11 07:07:51;;;;;;;18.33;8.33;;;6.10;34.10;;;;;;5097829;28;20200;-49
2022/03/11 07:10:22;;;;;;;17.40;9.57;;;6.40;33.10;;;;;;5110844;28;20187;-50
2022/03/11 07:12:53;;;;;;;18.00;9.57;;;6.20;32.50;;;;;;5107499;28;20187;-50
2022/03/11 07:15:23;;;;;;;17.37;9.50;;;5.80;32.70;;;;;;5106156;28;20180;-48
2022/03/11 07:17:54;;;;;;;15.53;9.00;;;5.90;32.70;;;;;;5101600;28;20211;-49
2022/03/11 07:20:24;;;;;;;13.70;7.37;;;5.70;32.40;;;;;;5109860;28;20199;-48
2022/03/11 07:22:55;;;;;;;19.27;8.60;;;5.40;33.10;;;;;;5100072;28;20225;-50
2022/03/11 07:25:26;;;;;;;17.90;8.30;;;5.70;33.00;;;;;;5098912;28;20230;-49
2022/03/11 07:27:56;;;;;;;17.90;9.07;;;5.80;33.20;;;;;;5102793;28;20548;-48
2022/03/11 07:30:26;;;;;;;12.10;8.20;;;5.80;34.50;;;;;;5098911;28;20313;-49
2022/03/11 07:32:57;;;;;;;15.17;8.83;;;5.60;34.60;;;;;;5102727;28;20187;-50
2022/03/11 07:35:28;;;;;;;20.67;9.53;;;6.10;33.00;;;;;;5185066;28;20562;-47
2022/03/11 07:37:58;;;;;;;19.70;8.63;;;6.30;32.70;;;;;;5101203;29;20295;-49
2022/03/11 07:40:29;;;;;;;16.07;8.60;;;5.90;31.90;;;;;;5100938;28;20207;-48
2022/03/11 07:42:59;;;;;;;18.57;8.97;;;6.20;31.70;;;;;;5103339;28;21122;-51
2022/03/11 07:45:30;;;;;;;17.03;9.53;;;5.90;31.20;;;;;;5105454;28;20233;-49
2022/03/11 07:48:01;;;;;;;20.77;9.83;;;5.60;31.80;;;;;;5092858;28;20219;-50
2022/03/11 07:50:32;;;;;;;16.47;8.97;;;5.80;32.70;;;;;;5103260;28;20196;-49
2022/03/11 07:53:02;;;;;;;15.27;8.80;;;6.10;31.50;;;;;;5125210;28;20206;-50
2022/03/11 07:55:33;;;;;;;16.67;8.07;;;6.10;31.20;;;;;;5094230;28;20436;-50
2022/03/11 07:58:04;;;;;;;21.53;8.83;;;6.10;31.60;;;;;;5102271;28;20664;-53
2022/03/11 08:00:38;;;;;;;18.27;8.80;;;5.20;32.20;;;;;;5097559;28;20277;-49
2022/03/11 08:03:08;;;;;;;19.37;9.20;;;4.50;33.70;;;;;;5103023;28;20438;-50
2022/03/11 08:05:39;;;;;;;18.30;9.50;;;2.90;35.50;;;;;;5101736;28;20466;-50
2022/03/11 08:08:09;;;;;;;20.40;9.37;;;1.80;37.90;;;;;;5107418;28;20281;-49
2022/03/11 08:10:40;;;;;;;21.63;9.20;;;1.20;39.50;;;;;;5102468;28;20219;-50
2022/03/11 08:13:10;;;;;;;22.90;9.73;;;0.90;40.10;;;;;;5105673;28;20187;-48
2022/03/11 08:15:41;;;;;;;24.00;8.60;;;0.70;40.70;;;;;;5110579;29;20191;-48
2022/03/11 08:18:11;;;;;;;22.67;9.70;;;0.80;40.90;;;;;;5124154;28;20210;-49
2022/03/11 08:20:42;;;;;;;23.53;8.37;;;0.80;40.90;;;;;;5110663;28;20183;-50
2022/03/11 08:23:13;;;;;;;16.40;9.20;;;0.90;40.80;;;;;;5104473;28;20199;-50
2022/03/11 08:25:45;;;;;;;17.03;9.23;;;1.00;40.90;;;;;;5125534;28;20194;-50
2022/03/11 08:28:16;;;;;;;18.20;9.10;;;1.30;40.30;;;;;;5111376;28;20458;-50
2022/03/11 08:30:47;;;;;;;14.47;8.13;;;1.50;39.80;;;;;;5103179;28;20422;-50
2022/03/11 08:33:22;;;;;;;21.27;9.00;;;1.70;39.50;;;;;;5125473;28;20185;-48
2022/03/11 08:35:53;;;;;;;20.03;7.90;;;1.60;39.00;;;;;;5089990;28;20183;-50
2022/03/11 08:38:23;;;;;;;23.83;8.80;;;1.50;39.30;;;;;;5095279;28;20478;-51
2022/03/11 08:40:54;;;;;;;18.20;9.70;;;1.30;39.10;;;;;;5109164;28;20672;-49
2022/03/11 08:43:24;;;;;;;27.60;10.30;;;1.20;39.20;;;;;;5107834;28;20187;-51
2022/03/11 08:45:55;;;;;;;12.27;7.43;;;1.20;39.30;;;;;;5103631;29;20671;-49
2022/03/11 08:48:27;;;;;;;19.07;9.43;;;1.30;39.10;;;;;;5192713;28;20210;-48
2022/03/11 08:50:58;;;;;;;19.33;9.03;;;1.40;39.10;;;;;;5104632;28;21322;-51
2022/03/11 08:53:29;;;;;;;15.93;8.60;;;1.50;39.30;;;;;;5104496;28;20435;-50
2022/03/11 08:55:59;;;;;;;17.80;8.97;;;1.60;38.90;;;;;;5104982;28;20610;-51
2022/03/11 08:58:30;;;;;;;16.33;8.40;;;1.60;38.50;;;;;;5105422;28;20253;-50
2022/03/11 09:01:00;;;;;;;13.33;8.50;;;1.60;38.50;;;;;;5109289;28;20191;-49
2022/03/11 09:03:31;;;;;;;18.60;9.47;;;1.60;38.00;;;;;;5120656;28;20199;-48
2022/03/11 09:06:01;;;;;;;17.43;9.87;;;1.70;38.20;;;;;;5102466;28;20644;-50
2022/03/11 09:08:32;;;;;;;15.87;8.40;;;1.80;38.20;;;;;;5106931;28;20203;-51
2022/03/11 09:11:03;;;;;;;15.73;8.63;;;1.90;38.00;;;;;;5111913;29;20186;-50
2022/03/11 09:13:33;;;;;;;14.07;8.80;;;2.00;37.70;;;;;;5117750;28;20242;-50
2022/03/11 09:16:04;;;;;;;16.23;8.90;;;2.00;37.50;;;;;;5101728;28;20198;-48
2022/03/11 09:18:35;;;;;;;15.80;8.50;;;2.10;37.10;;;;;;5111010;28;20221;-52
2022/03/11 09:21:05;;;;;;;11.93;7.90;;;2.00;36.70;;;;;;5111039;28;20230;-48
2022/03/11 09:23:36;;;;;;;20.90;8.70;;;2.10;36.80;;;;;;5099957;29;20204;-49
2022/03/11 09:26:06;;;;;;;17.60;8.17;;;2.20;36.50;;;;;;5102881;28;20215;-49
2022/03/11 09:28:37;;;;;;;22.20;8.50;;;2.30;36.40;;;;;;5105401;28;20195;-50
2022/03/11 09:31:08;;;;;;;21.80;8.70;;;2.30;36.20;;;;;;5113659;28;20644;-50
2022/03/11 09:33:39;;;;;;;16.90;9.00;;;2.40;36.00;;;;;;5107885;28;20261;-49
2022/03/11 09:36:12;;;;;;;13.97;8.93;;;2.40;36.10;;;;;;5115680;28;20182;-49
2022/03/11 09:38:43;;;;;;;15.93;8.13;;;2.40;36.10;;;;;;5106542;28;20536;-50
2022/03/11 09:41:15;;;;;;;20.00;9.00;;;2.50;36.20;;;;;;5105385;28;20443;-49
2022/03/11 09:43:46;;;;;;;14.40;8.67;;;2.60;35.80;;;;;;5102147;28;20522;-50
2022/03/11 09:46:17;;;;;;;19.07;8.83;;;2.70;35.80;;;;;;5102469;29;20565;-51
2022/03/11 09:48:48;;;;;;;10.93;7.77;;;2.80;35.50;;;;;;5106440;28;20463;-49
2022/03/11 09:51:20;;;;;;;15.50;9.37;;;3.00;35.20;;;;;;5112713;29;20478;-48
2022/03/11 09:53:51;;;;;;;17.37;8.93;;;3.00;34.80;;;;;;5105104;28;20442;-50
2022/03/11 09:56:22;;;;;;;28.30;9.00;;;3.20;33.70;;;;;;5100784;28;21095;-50
2022/03/11 09:58:53;;;;;;;15.40;8.00;;;3.20;33.70;;;;;;5101124;28;20455;-50
2022/03/11 10:01:24;;;;;;;15.93;7.30;;;3.20;33.20;;;;;;5124103;28;20869;-48
2022/03/11 10:03:54;;;;;;;13.40;8.17;;;3.30;32.70;;;;;;5123043;28;20206;-49
2022/03/11 10:06:38;;;;;;;11.00;7.53;;;3.40;32.20;;;;;;5109223;28;20218;-51
2022/03/11 10:09:18;;;;;;;17.37;7.23;;;3.40;32.30;;;;;;5111267;28;20198;-50
2022/03/11 10:11:55;;;;;;;9.60;6.83;;;3.40;32.20;;;;;;5105069;28;20438;-49
2022/03/11 10:14:53;;;;;;;15.17;6.90;;;3.70;32.40;;;;;;5115206;28;20520;-49
2022/03/11 10:17:23;;;;;;;13.23;7.10;;;3.80;30.20;;;;;;5128288;28;20458;-50
2022/03/11 10:20:00;;;;;;;9.43;6.53;;;4.00;29.40;;;;;;5100243;29;20440;-51
2022/03/11 10:22:34;;;;;;;12.30;7.20;;;4.10;29.30;;;;;;5108343;29;20551;-51
2022/03/11 10:25:16;;;;;;;10.27;7.10;;;4.30;29.00;;;;;;5115352;28;20475;-49
2022/03/11 10:27:57;;;;;;;14.77;7.90;;;4.20;29.00;;;;;;5102138;28;20469;-51
2022/03/11 10:30:30;;;;;;;15.70;6.93;;;4.20;29.50;;;;;;5108495;28;20450;-50
2022/03/11 10:33:04;;;;;;;19.10;7.37;;;4.50;29.10;;;;;;5107508;28;20566;-51
2022/03/11 10:35:37;;;;;;;10.87;7.27;;;4.40;28.90;;;;;;5098830;28;20526;-51
2022/03/11 10:38:11;;;;;;;8.77;6.50;;;4.60;29.10;;;;;;5105171;28;21087;-51
2022/03/11 10:40:53;;;;;;;14.27;8.10;;;4.60;28.50;;;;;;5110287;28;20497;-51
2022/03/11 10:43:32;;;;;;;10.17;7.20;;;4.50;28.70;;;;;;5102162;28;20443;-51
2022/03/11 10:46:02;;;;;;;14.40;7.87;;;4.60;28.70;;;;;;5099558;28;20920;-52
2022/03/11 10:49:00;;;;;;;17.70;7.53;;;4.70;28.70;;;;;;5110805;28;20473;-49
2022/03/11 10:51:33;;;;;;;12.47;6.37;;;4.80;28.70;;;;;;5100811;28;20195;-50
2022/03/11 10:54:07;;;;;;;13.03;7.60;;;4.80;28.40;;;;;;5102581;28;20450;-52
2022/03/11 10:56:40;;;;;;;10.90;6.83;;;4.90;28.10;;;;;;5114622;28;20441;-51
2022/03/11 10:59:22;;;;;;;13.80;7.13;;;4.90;27.80;;;;;;5106616;28;20470;-50
2022/03/11 11:01:54;;;;;;;16.20;6.17;;;5.00;27.40;;;;;;5096754;28;20450;-51
2022/03/11 11:04:26;;;;;;;11.17;6.90;;;5.00;27.30;;;;;;5103798;28;20453;-51
2022/03/11 11:06:57;;;;;;;14.73;7.00;;;5.00;27.30;;;;;;5098524;28;20497;-51
2022/03/11 11:09:28;;;;;;;8.27;6.37;;;5.10;27.30;;;;;;5102070;28;20454;-50
2022/03/11 11:11:59;;;;;;;10.80;6.03;;;5.20;26.90;;;;;;5093939;28;20438;-51
2022/03/11 11:14:30;;;;;;;12.00;6.67;;;5.20;26.30;;;;;;5088048;28;20489;-49
2022/03/11 11:17:04;;;;;;;8.83;6.00;;;5.20;26.60;;;;;;5122829;28;20218;-50
2022/03/11 11:19:37;;;;;;;13.63;6.67;;;5.30;26.10;;;;;;5101043;28;20472;-50
2022/03/11 11:22:08;;;;;;;13.93;6.40;;;5.40;26.40;;;;;;5105070;28;20962;-51
2022/03/11 11:24:40;;;;;;;12.33;6.87;;;5.50;26.30;;;;;;5102100;28;20462;-50
2022/03/11 11:27:11;;;;;;;8.30;6.07;;;5.60;26.00;;;;;;5121315;28;20507;-49
2022/03/11 11:29:42;;;;;;;11.67;6.90;;;5.60;26.20;;;;;;5123599;28;20474;-50
2022/03/11 11:32:15;;;;;;;12.20;7.07;;;5.70;26.50;;;;;;5108321;28;20534;-51
2022/03/11 11:34:46;;;;;;;14.80;6.33;;;5.80;26.20;;;;;;5105625;28;20938;-51
2022/03/11 11:39:52;;;;;;;12.13;5.70;;;5.90;25.80;;;;;;5246671;28;20480;-49
2022/03/11 11:42:23;;;;;;;14.50;6.23;;;5.90;25.70;;;;;;5255978;28;20433;-48
2022/03/11 11:44:53;;;;;;;19.77;7.27;;;6.00;25.70;;;;;;5250986;28;20474;-47
2022/03/11 11:47:25;;;;;;;12.50;6.13;;;6.00;25.70;;;;;;5254174;28;20183;-49
2022/03/11 11:49:56;;;;;;;15.37;6.90;;;6.10;25.60;;;;;;5244574;28;20557;-51
2022/03/11 11:52:29;;;;;;;13.60;7.03;;;6.20;25.80;;;;;;5248308;28;20433;-50
2022/03/11 11:55:20;;;;;;;10.27;6.93;;;6.20;25.30;;;;;;5261222;28;20588;-47
2022/03/11 11:57:52;;;;;;;9.60;6.20;;;6.10;25.30;;;;;;5247338;28;20977;-49
2022/03/11 12:00:38;;;;;;;12.20;5.83;;;6.10;25.70;;;;;;5249853;28;20429;-48
2022/03/11 12:03:14;;;;;;;13.20;5.63;;;6.10;25.90;;;;;;5249354;28;20439;-51
2022/03/11 12:05:48;;;;;;;11.03;6.87;;;6.10;25.80;;;;;;5249729;28;20559;-51
2022/03/11 12:08:33;;;;;;;12.67;6.90;;;6.20;25.70;;;;;;5251343;28;20455;-52
2022/03/11 12:11:05;;;;;;;10.83;7.50;;;6.20;25.70;;;;;;5249068;28;20536;-50
2022/03/11 12:13:39;;;;;;;10.43;5.87;;;6.40;25.60;;;;;;5247059;28;20433;-52
2022/03/11 12:16:24;;;;;;;11.93;5.70;;;6.40;25.00;;;;;;5251511;28;20442;-52
2022/03/11 12:18:55;;;;;;;9.63;5.40;;;6.50;25.20;;;;;;5253371;28;20704;-51
2022/03/11 12:21:39;;;;;;;9.63;5.80;;;6.60;24.80;;;;;;5241369;28;20525;-50
2022/03/11 12:24:32;;;;;;;11.93;6.13;;;6.70;24.90;;;;;;5252533;28;20187;-51
2022/03/11 12:27:03;;;;;;;8.67;5.83;;;6.80;24.60;;;;;;5246098;28;21775;-49
2022/03/11 12:29:35;;;;;;;11.10;5.77;;;6.80;24.30;;;;;;5249337;28;20546;-49
2022/03/11 12:32:07;;;;;;;17.13;5.93;;;6.90;24.10;;;;;;5256126;28;20191;-50
2022/03/11 12:34:38;;;;;;;7.40;5.27;;;7.00;24.30;;;;;;5248104;28;20483;-50
2022/03/11 12:37:15;;;;;;;13.40;5.50;;;6.80;23.90;;;;;;5255654;28;20635;-51
2022/03/11 12:39:45;;;;;;;10.87;5.80;;;6.90;24.00;;;;;;5254941;28;20533;-49
2022/03/11 12:42:16;;;;;;;8.33;4.80;;;6.90;23.90;;;;;;5255146;28;20441;-49
2022/03/11 12:44:47;;;;;;;7.63;4.97;;;7.00;23.80;;;;;;5257119;28;20299;-50
2022/03/11 12:47:18;;;;;;;10.20;5.47;;;7.10;23.70;;;;;;5248696;28;20267;-49
2022/03/11 12:50:01;;;;;;;12.63;5.70;;;7.10;23.40;;;;;;5249568;28;20498;-50
2022/03/11 12:52:40;;;;;;;7.57;4.63;;;7.10;23.40;;;;;;5255459;28;20198;-49
2022/03/11 12:55:27;;;;;;;8.00;5.03;;;7.10;23.50;;;;;;5254504;28;20454;-50
2022/03/11 12:58:02;;;;;;;8.07;5.33;;;7.20;23.70;;;;;;5259446;28;20463;-49
2022/03/11 13:00:37;;;;;;;5.70;4.13;;;7.30;23.50;;;;;;5252215;28;20489;-49
2022/03/11 13:03:12;;;;;;;9.53;5.10;;;7.40;22.30;;;;;;5271396;28;20458;-49
2022/03/11 13:05:45;;;;;;;8.63;4.67;;;7.40;22.00;;;;;;5251339;28;20488;-50
2022/03/11 13:08:17;;;;;;;9.30;5.33;;;7.50;21.90;;;;;;5248173;28;20469;-50